.
WxDataArchive / Data Records for 2013-11-04
2013-11-03 November 2013 2013-11-05

Data Records for Monday, 04 November 2013

Time	Temp	Chill	HIndex	Humid	Dewpt	 Wind 	HiWind	WindDir	Rain 	Barom 
-----	----	-----	------	-----	-----	------	------	-------	-----	----- 
00:00	36.8	36.8	36.8	88	33.6	1	4	90	0.00	30.383 
00:05	36.8	36.8	36.8	88	33.6	0	2	90	0.00	30.383 
00:10	36.6	36.6	36.6	88	33.4	1	3	90	0.00	30.383 
00:15	36.6	36.6	36.6	88	33.4	1	3	90	0.00	30.373 
00:20	36.5	36.5	36.5	88	33.3	1	4	90	0.00	30.373 
00:25	36.3	36.3	36.3	89	33.4	1	4	90	0.00	30.373 
00:30	36.3	36.3	36.3	89	33.4	1	3	90	0.00	30.368 
00:35	36.3	36.3	36.3	89	33.4	1	3	90	0.00	30.368 
00:40	36.3	36.3	36.3	89	33.4	1	3	90	0.00	30.368 
00:45	36.3	36.3	36.3	89	33.4	1	3	90	0.00	30.371 
00:50	36.3	36.3	36.3	89	33.4	1	5	90	0.00	30.371 
00:55	36.5	36.5	36.5	88	33.3	2	4	90	0.00	30.371 
01:00	36.5	36.5	36.5	88	33.3	1	3	90	0.00	30.381 
01:05	36.5	36.5	36.5	88	33.3	1	3	90	0.00	30.381 
01:10	36.3	36.3	36.3	88	33.1	1	4	90	0.00	30.381 
01:15	36.3	36.3	36.3	88	33.1	1	2	68	0.00	30.380 
01:20	36.3	36.3	36.3	88	33.1	1	4	68	0.00	30.380 
01:25	36.2	36.2	36.2	88	33.0	0	3	68	0.00	30.380 
01:30	36.0	36.0	36.0	88	32.8	0	3	68	0.00	30.384 
01:35	36.0	36.0	36.0	88	32.8	0	3	68	0.00	30.384 
01:40	35.9	35.9	35.9	88	32.7	0	3	68	0.00	30.384 
01:45	35.9	35.9	35.9	88	32.7	0	2	68	0.00	30.383 
01:50	35.6	35.6	35.6	88	32.4	0	2	68	0.00	30.383 
01:55	35.5	35.5	35.5	89	32.6	0	2	68	0.00	30.383 
02:00	35.5	35.5	35.5	89	32.6	0	2	68	0.00	30.382 
02:05	35.3	35.3	35.3	89	32.4	0	2	68	0.00	30.382 
02:10	35.2	35.2	35.2	89	32.3	0	1	68	0.00	30.382 
02:15	35.0	35.0	35.0	89	32.1	0	1	68	0.00	30.382 
02:20	35.0	35.0	35.0	89	32.1	0	2	68	0.00	30.382 
02:25	34.9	34.9	34.9	90	32.3	0	2	68	0.00	30.382 
02:30	34.9	34.9	34.9	90	32.3	0	1	68	0.00	30.394 
02:35	34.7	34.7	34.7	90	32.1	0	1	68	0.00	30.394 
02:40	34.7	34.7	34.7	90	32.1	0	1	68	0.00	30.394 
02:45	34.7	34.7	34.7	90	32.1	0	1	68	0.00	30.385 
02:50	34.6	34.6	34.6	90	32.0	0	2	68	0.00	30.385 
02:55	34.6	34.6	34.6	90	32.0	0	1	68	0.00	30.385 
03:00	34.4	34.4	34.4	90	31.8	0	0	---	0.00	30.395 
03:05	34.3	34.3	34.3	90	31.7	0	0	---	0.00	30.395 
03:10	34.1	34.1	34.1	90	31.5	0	2	68	0.00	30.395 
03:15	34.1	34.1	34.1	90	31.5	0	1	68	0.00	30.387 
03:20	34.1	34.1	34.1	91	31.8	0	2	68	0.00	30.387 
03:25	34.1	34.1	34.1	91	31.8	0	2	68	0.00	30.387 
03:30	34.0	34.0	34.0	91	31.7	0	1	68	0.00	30.390 
03:35	34.0	34.0	34.0	91	31.7	0	3	68	0.00	30.390 
03:40	34.0	34.0	34.0	91	31.7	0	1	68	0.00	30.390 
03:45	33.8	33.8	33.8	91	31.5	0	0	---	0.00	30.400 
03:50	33.8	33.8	33.8	91	31.5	0	1	68	0.00	30.400 
03:55	33.7	33.7	33.7	91	31.4	0	1	68	0.00	30.400 
04:00	33.7	33.7	33.7	91	31.4	0	0	---	0.00	30.401 
04:05	33.7	33.7	33.7	91	31.4	0	0	---	0.00	30.401 
04:10	33.8	33.8	33.8	91	31.5	0	1	68	0.00	30.401 
04:15	33.8	33.8	33.8	92	31.7	0	2	68	0.00	30.404 
04:20	33.8	33.8	33.8	92	31.7	0	0	---	0.00	30.404 
04:25	34.0	34.0	34.0	92	31.9	0	1	68	0.00	30.404 
04:30	34.0	34.0	34.0	92	31.9	0	2	68	0.00	30.399 
04:35	34.0	34.0	34.0	92	31.9	1	3	68	0.00	30.399 
04:40	34.0	34.0	34.0	92	31.9	1	3	68	0.00	30.399 
04:45	34.0	34.0	34.0	92	31.9	1	4	68	0.00	30.387 
04:50	34.0	34.0	34.0	92	31.9	1	3	68	0.00	30.387 
04:55	34.1	34.1	34.1	92	32.0	1	2	68	0.00	30.387 
05:00	34.1	34.1	34.1	92	32.0	0	2	68	0.00	30.387 
05:05	34.3	34.3	34.3	92	32.2	0	2	68	0.00	30.387 
05:10	34.4	34.4	34.4	91	32.0	0	3	68	0.00	30.387 
05:15	34.4	34.4	34.4	91	32.0	1	3	68	0.00	30.398 
05:20	34.6	34.6	34.6	91	32.2	0	3	68	0.00	30.398 
05:25	34.7	34.7	34.7	91	32.3	0	1	68	0.00	30.398 
05:30	34.7	34.7	34.7	91	32.3	0	2	68	0.00	30.398 
05:35	34.9	34.9	34.9	90	32.3	0	2	68	0.00	30.398 
05:40	34.9	34.9	34.9	90	32.3	0	1	68	0.00	30.398 
05:45	34.9	34.9	34.9	90	32.3	0	2	68	0.00	30.396 
05:50	35.0	35.0	35.0	90	32.4	0	4	68	0.00	30.396 
05:55	35.2	35.2	35.2	89	32.3	0	2	68	0.00	30.396 
06:00	35.2	35.2	35.2	89	32.3	0	2	68	0.00	30.399 
06:05	35.2	35.2	35.2	89	32.3	0	0	---	0.00	30.399 
06:10	35.3	35.3	35.3	89	32.4	0	1	68	0.00	30.399 
06:15	35.3	35.3	35.3	89	32.4	0	2	68	0.00	30.402 
06:20	35.5	35.5	35.5	89	32.6	0	2	68	0.00	30.402 
06:25	35.5	35.5	35.5	88	32.3	0	2	68	0.00	30.402 
06:30	35.6	35.6	35.6	88	32.4	1	2	68	0.00	30.388 
06:35	35.8	35.8	35.8	88	32.6	1	6	68	0.00	30.388 
06:40	35.9	35.9	35.9	87	32.4	1	3	68	0.00	30.388 
06:45	36.0	36.0	36.0	87	32.5	1	3	68	0.00	30.388 
06:50	36.2	36.2	36.2	87	32.7	1	3	68	0.00	30.388 
06:55	36.5	36.5	36.5	86	32.7	1	4	68	0.00	30.388 
07:00	36.6	36.6	36.6	86	32.8	1	5	68	0.00	30.386 
07:05	36.8	36.8	36.8	86	33.0	1	4	68	0.00	30.386 
07:10	36.9	36.9	36.9	85	32.8	0	3	68	0.00	30.386 
07:15	37.0	37.0	37.0	85	32.9	1	3	68	0.00	30.388 
07:20	37.2	37.2	37.2	85	33.1	0	1	68	0.00	30.388 
07:25	37.3	37.3	37.3	84	32.9	0	1	68	0.00	30.388 
07:30	37.3	37.3	37.3	84	32.9	0	2	68	0.00	30.390 
07:35	37.5	37.5	37.5	84	33.1	0	2	68	0.00	30.390 
07:40	37.6	37.6	37.6	84	33.2	0	1	68	0.00	30.390 
07:45	37.6	37.6	37.6	83	32.9	0	3	68	0.00	30.388 
07:50	37.8	37.8	37.8	83	33.1	1	3	68	0.00	30.388 
07:55	37.9	37.9	37.9	83	33.2	1	2	68	0.00	30.388 
08:00	38.0	38.0	38.0	82	33.0	1	6	90	0.00	30.392 
08:05	38.0	38.0	38.0	82	33.0	1	3	90	0.00	30.392 
08:10	38.2	38.2	38.2	81	32.9	1	7	112	0.00	30.392 
08:15	38.3	38.3	38.3	81	33.0	1	3	112	0.00	30.389 
08:20	38.5	38.5	38.5	81	33.2	1	3	112	0.00	30.389 
08:25	38.6	38.6	38.6	81	33.3	1	6	90	0.00	30.389 
08:30	38.8	38.8	38.8	81	33.5	0	3	90	0.00	30.393 
08:35	38.9	38.9	38.9	81	33.6	1	3	90	0.00	30.393 
08:40	39.2	39.2	39.2	80	33.6	1	3	90	0.00	30.393 
08:45	39.3	39.3	39.3	80	33.7	0	1	90	0.00	30.406 
08:50	39.5	39.5	39.5	79	33.5	0	3	90	0.00	30.406 
08:55	39.8	39.8	39.8	79	33.8	0	3	90	0.00	30.406 
09:00	40.1	40.1	40.1	78	33.8	1	5	135	0.00	30.398 
09:05	40.3	40.3	40.3	77	33.7	1	5	68	0.00	30.398 
09:10	40.6	40.6	40.6	76	33.6	1	3	68	0.00	30.398 
09:15	40.8	40.8	40.8	76	33.8	1	3	90	0.00	30.387 
09:20	41.1	41.1	41.1	75	33.8	1	5	135	0.00	30.387 
09:25	41.2	41.2	41.2	74	33.6	2	6	68	0.00	30.387 
09:30	41.3	41.3	41.3	74	33.6	1	3	68	0.00	30.388 
09:35	41.6	41.6	41.6	74	33.9	0	3	90	0.00	30.388 
09:40	41.9	41.9	41.9	73	33.9	1	3	90	0.00	30.388 
09:45	42.5	42.5	42.5	71	33.8	1	6	68	0.00	30.391 
09:50	43.1	43.1	43.1	67	32.9	2	7	90	0.00	30.391 
09:55	43.5	43.5	43.5	66	32.9	2	6	112	0.00	30.391 
10:00	43.8	43.8	43.8	65	32.8	1	3	112	0.00	30.390 
10:05	44.1	44.1	44.1	66	33.5	1	7	90	0.00	30.390 
10:10	44.2	44.2	44.2	65	33.2	1	4	90	0.00	30.390 
10:15	44.5	44.5	44.5	64	33.1	1	4	90	0.00	30.386 
10:20	44.6	44.6	44.6	63	32.8	1	4	112	0.00	30.386 
10:25	44.9	44.9	44.9	62	32.7	1	4	112	0.00	30.386 
10:30	45.1	45.1	45.1	61	32.5	1	4	248	0.00	30.386 
10:35	45.2	45.2	45.2	61	32.6	2	6	90	0.00	30.386 
10:40	45.4	45.4	45.4	62	33.2	2	6	112	0.00	30.386 
10:45	45.5	45.5	45.5	61	32.8	1	3	90	0.00	30.383 
10:50	45.7	45.7	45.7	58	31.8	2	5	90	0.00	30.383 
10:55	45.7	45.7	45.7	59	32.2	2	6	112	0.00	30.383 
11:00	45.8	45.8	45.8	58	31.9	2	7	112	0.00	30.379 
11:05	46.0	46.0	46.0	58	32.1	2	5	90	0.00	30.379 
11:10	46.0	46.0	46.0	57	31.6	2	6	112	0.00	30.379 
11:15	46.0	46.0	46.0	58	32.1	2	5	90	0.00	30.362 
11:20	46.0	46.0	46.0	56	31.2	2	6	112	0.00	30.362 
11:25	46.2	46.2	46.2	56	31.4	2	7	90	0.00	30.362 
11:30	46.2	46.2	46.2	55	30.9	2	6	68	0.00	30.368 
11:35	46.2	46.2	46.2	55	30.9	2	4	90	0.00	30.368 
11:40	46.2	46.2	46.2	54	30.5	2	9	90	0.00	30.368 
11:45	46.4	46.4	46.4	54	30.7	1	8	90	0.00	30.370 
11:50	46.5	46.5	46.5	54	30.8	1	5	90	0.00	30.370 
11:55	46.8	46.8	46.8	52	30.1	2	4	112	0.00	30.370 
12:00	47.6	47.6	47.6	53	31.3	1	4	22	0.00	30.361 
12:05	47.9	47.9	47.9	52	31.1	2	9	90	0.00	30.361 
12:10	48.2	48.2	48.2	50	30.4	2	7	90	0.00	30.361 
12:15	48.3	48.3	48.3	48	29.5	2	5	90	0.00	30.354 
12:20	48.6	48.6	48.6	52	31.8	2	5	90	0.00	30.354 
12:25	49.1	49.1	49.1	49	30.8	2	4	90	0.00	30.354 
12:30	49.2	49.2	49.2	49	30.9	2	6	90	0.00	30.343 
12:35	49.4	49.4	49.4	48	30.5	2	5	90	0.00	30.343 
12:40	49.6	49.6	49.6	49	31.2	2	6	90	0.00	30.343 
12:45	49.9	49.9	49.9	49	31.5	2	5	135	0.00	30.330 
12:50	49.9	49.9	49.9	49	31.5	3	9	90	0.00	30.330 
12:55	50.1	50.1	50.1	50	32.2	1	5	90	0.00	30.330 
13:00	50.5	50.5	50.5	50	32.6	2	6	112	0.00	30.305 
13:05	50.8	50.8	50.8	48	31.8	2	9	90	0.00	30.305 
13:10	50.8	50.8	50.8	47	31.3	3	6	90	0.00	30.305 
13:15	51.0	51.0	51.0	49	32.5	2	5	90	0.00	30.310 
13:20	51.1	51.1	51.1	50	33.1	1	6	248	0.00	30.310 
13:25	51.4	51.4	51.4	48	32.4	1	4	112	0.00	30.310 
13:30	51.4	51.4	51.4	47	31.9	1	4	45	0.00	30.304 
13:35	51.4	51.4	51.4	47	31.9	2	5	112	0.00	30.304 
13:40	51.6	51.6	51.6	47	32.0	2	4	90	0.00	30.304 
13:45	51.4	51.4	51.4	48	32.4	1	5	112	0.00	30.288 
13:50	51.4	51.4	51.4	48	32.4	2	6	112	0.00	30.288 
13:55	51.3	51.3	51.3	50	33.3	1	5	90	0.00	30.288 
14:00	51.1	51.1	51.1	50	33.1	1	4	90	0.00	30.297 
14:05	51.3	51.3	51.3	51	33.8	1	4	112	0.00	30.297 
14:10	51.3	51.3	51.3	50	33.3	1	4	90	0.00	30.297 
14:15	51.4	51.4	51.4	50	33.4	1	3	112	0.00	30.289 
14:20	51.4	51.4	51.4	51	33.9	1	3	112	0.00	30.289 
14:25	51.3	51.3	51.3	52	34.3	1	3	90	0.00	30.289 
14:30	51.3	51.3	51.3	51	33.8	1	6	68	0.00	30.283 
14:35	51.1	51.1	51.1	53	34.6	1	5	68	0.00	30.283 
14:40	51.1	51.1	51.1	52	34.1	2	6	90	0.00	30.283 
14:45	51.3	51.3	51.3	53	34.8	1	3	68	0.00	30.289 
14:50	51.6	51.6	51.6	52	34.6	1	4	90	0.00	30.289 
14:55	51.6	51.6	51.6	53	35.0	1	2	112	0.00	30.289 
15:00	51.6	51.6	51.6	53	35.0	1	5	90	0.00	30.288 
15:05	51.6	51.6	51.6	53	35.0	1	3	112	0.00	30.288 
15:10	51.6	51.6	51.6	53	35.0	1	3	112	0.00	30.288 
15:15	51.7	51.7	51.7	54	35.6	1	4	112	0.00	30.288 
15:20	51.7	51.7	51.7	54	35.6	1	4	112	0.00	30.288 
15:25	51.7	51.7	51.7	54	35.6	1	4	112	0.00	30.288 
15:30	51.6	51.6	51.6	54	35.5	1	4	90	0.00	30.284 
15:35	51.6	51.6	51.6	55	36.0	0	3	112	0.00	30.284 
15:40	51.4	51.4	51.4	55	35.8	1	5	68	0.00	30.284 
15:45	51.4	51.4	51.4	55	35.8	1	5	112	0.00	30.288 
15:50	51.4	51.4	51.4	56	36.2	0	2	112	0.00	30.288 
15:55	51.4	51.4	51.4	57	36.7	1	4	68	0.00	30.288 
16:00	51.4	51.4	51.4	57	36.7	1	2	68	0.00	30.280 
16:05	51.3	51.3	51.3	58	37.0	0	2	90	0.00	30.280 
16:10	51.3	51.3	51.3	57	36.6	1	4	68	0.00	30.280 
16:15	51.3	51.3	51.3	58	37.0	1	2	68	0.00	30.278 
16:20	51.1	51.1	51.1	58	36.8	1	4	158	0.00	30.278 
16:25	51.1	51.1	51.1	59	37.3	0	3	68	0.00	30.278 
16:30	51.1	51.1	51.1	59	37.3	0	4	68	0.00	30.287 
16:35	51.0	51.0	51.0	59	37.2	0	2	135	0.00	30.287 
16:40	51.0	51.0	51.0	60	37.6	0	1	180	0.00	30.287 
16:45	50.8	50.8	50.8	60	37.4	0	2	112	0.00	30.279 
16:50	50.8	50.8	50.8	60	37.4	0	2	135	0.00	30.279 
16:55	50.8	50.8	50.8	61	37.8	0	5	112	0.00	30.279 
17:00	50.7	50.7	50.7	61	37.7	0	2	112	0.00	30.274 
17:05	50.7	50.7	50.7	61	37.7	0	1	112	0.00	30.274 
17:10	50.5	50.5	50.5	62	38.0	0	2	112	0.00	30.274 
17:15	50.4	50.4	50.4	62	37.9	0	3	112	0.00	30.272 
17:20	50.4	50.4	50.4	61	37.5	0	2	135	0.00	30.272 
17:25	50.2	50.2	50.2	62	37.7	0	2	135	0.00	30.272 
17:30	50.2	50.2	50.2	62	37.7	1	3	135	0.00	30.282 
17:35	50.1	50.1	50.1	62	37.6	0	2	135	0.00	30.282 
17:40	50.1	50.1	50.1	63	38.0	0	1	135	0.00	30.282 
17:45	49.9	49.9	49.9	63	37.8	0	1	135	0.00	30.285 
17:50	49.9	49.9	49.9	64	38.2	0	1	135	0.00	30.285 
17:55	49.8	49.8	49.8	64	38.1	0	1	135	0.00	30.285 
18:00	49.6	49.6	49.6	65	38.3	0	2	135	0.00	30.284 
18:05	49.5	49.5	49.5	65	38.2	0	1	135	0.00	30.284 
18:10	49.4	49.4	49.4	66	38.5	0	1	135	0.00	30.284 
18:15	49.2	49.2	49.2	66	38.3	0	0	---	0.00	30.281 
18:20	49.1	49.1	49.1	67	38.6	0	0	---	0.00	30.281 
18:25	48.9	48.9	48.9	67	38.4	0	1	135	0.00	30.281 
18:30	48.8	48.8	48.8	68	38.7	0	0	---	0.00	30.281 
18:35	48.6	48.6	48.6	69	38.9	0	1	135	0.00	30.281 
18:40	48.5	48.5	48.5	69	38.8	0	1	135	0.00	30.281 
18:45	48.5	48.5	48.5	69	38.8	0	1	135	0.00	30.283 
18:50	48.6	48.6	48.6	69	38.9	0	1	135	0.00	30.283 
18:55	48.6	48.6	48.6	69	38.9	0	2	135	0.00	30.283 
19:00	48.5	48.5	48.5	69	38.8	0	1	135	0.00	30.276 
19:05	48.6	48.6	48.6	69	38.9	0	3	135	0.00	30.276 
19:10	48.6	48.6	48.6	68	38.5	0	1	135	0.00	30.276 
19:15	48.8	48.8	48.8	68	38.7	0	2	135	0.00	30.282 
19:20	48.9	48.9	48.9	68	38.8	0	1	158	0.00	30.282 
19:25	48.9	48.9	48.9	67	38.4	0	2	135	0.00	30.282 
19:30	49.1	49.1	49.1	67	38.6	0	2	135	0.00	30.285 
19:35	49.1	49.1	49.1	67	38.6	1	4	135	0.00	30.285 
19:40	49.2	49.2	49.2	67	38.7	0	2	112	0.00	30.285 
19:45	49.2	49.2	49.2	67	38.7	0	3	112	0.00	30.284 
19:50	49.1	49.1	49.1	67	38.6	0	3	112	0.00	30.284 
19:55	49.1	49.1	49.1	67	38.6	1	3	90	0.00	30.284 
20:00	49.2	49.2	49.2	67	38.7	0	2	90	0.00	30.283 
20:05	49.4	49.4	49.4	67	38.9	1	3	90	0.00	30.283 
20:10	49.5	49.5	49.5	66	38.6	0	2	90	0.00	30.283 
20:15	49.6	49.6	49.6	66	38.7	0	2	90	0.00	30.282 
20:20	49.6	49.6	49.6	66	38.7	0	3	90	0.00	30.282 
20:25	49.6	49.6	49.6	66	38.7	0	2	90	0.00	30.282 
20:30	49.6	49.6	49.6	66	38.7	0	2	90	0.00	30.280 
20:35	49.6	49.6	49.6	66	38.7	0	2	90	0.00	30.280 
20:40	49.8	49.8	49.8	66	38.9	1	3	90	0.00	30.280 
20:45	49.8	49.8	49.8	67	39.3	0	1	90	0.00	30.281 
20:50	49.8	49.8	49.8	67	39.3	1	4	90	0.00	30.281 
20:55	49.8	49.8	49.8	67	39.3	0	2	90	0.00	30.281 
21:00	49.8	49.8	49.8	67	39.3	0	3	90	0.00	30.282 
21:05	49.8	49.8	49.8	67	39.3	0	2	90	0.00	30.282 
21:10	49.8	49.8	49.8	67	39.3	0	4	90	0.00	30.282 
21:15	49.6	49.6	49.6	67	39.1	0	2	112	0.00	30.282 
21:20	49.6	49.6	49.6	67	39.1	0	1	112	0.00	30.282 
21:25	49.5	49.5	49.5	68	39.4	0	2	112	0.00	30.282 
21:30	49.5	49.5	49.5	68	39.4	0	2	112	0.00	30.286 
21:35	49.5	49.5	49.5	68	39.4	0	1	112	0.00	30.286 
21:40	49.5	49.5	49.5	68	39.4	0	2	112	0.00	30.286 
21:45	49.5	49.5	49.5	68	39.4	0	2	112	0.00	30.282 
21:50	49.4	49.4	49.4	68	39.3	0	2	112	0.00	30.282 
21:55	49.4	49.4	49.4	68	39.3	0	3	22	0.00	30.282 
22:00	49.2	49.2	49.2	69	39.5	0	1	22	0.00	30.285 
22:05	49.1	49.1	49.1	69	39.4	0	1	22	0.00	30.285 
22:10	48.9	48.9	48.9	69	39.2	0	2	45	0.00	30.285 
22:15	48.9	48.9	48.9	69	39.2	0	2	45	0.00	30.291 
22:20	48.8	48.8	48.8	70	39.5	0	2	45	0.00	30.291 
22:25	48.6	48.6	48.6	70	39.3	0	1	45	0.00	30.291 
22:30	48.5	48.5	48.5	71	39.5	0	1	45	0.00	30.290 
22:35	48.3	48.3	48.3	71	39.3	0	1	45	0.00	30.290 
22:40	48.2	48.2	48.2	72	39.6	0	2	45	0.00	30.290 
22:45	48.2	48.2	48.2	72	39.6	0	2	45	0.00	30.294 
22:50	48.2	48.2	48.2	72	39.6	0	1	45	0.00	30.294 
22:55	48.2	48.2	48.2	72	39.6	0	4	68	0.00	30.294 
23:00	48.2	48.2	48.2	72	39.6	0	1	68	0.00	30.285 
23:05	48.2	48.2	48.2	73	40.0	0	1	68	0.00	30.285 
23:10	48.0	48.0	48.0	73	39.8	0	1	68	0.00	30.285 
23:15	47.9	47.9	47.9	73	39.7	0	0	---	0.00	30.287 
23:20	47.7	47.7	47.7	73	39.5	0	0	---	0.00	30.287 
23:25	47.6	47.6	47.6	73	39.4	0	0	---	0.00	30.287 
23:30	47.4	47.4	47.4	73	39.2	0	0	---	0.00	30.287 
23:35	47.3	47.3	47.3	74	39.4	0	1	68	0.00	30.287 
23:40	47.3	47.3	47.3	74	39.4	0	1	68	0.00	30.287 
23:45	47.3	47.3	47.3	75	39.8	0	1	68	0.00	30.281 
23:50	47.3	47.3	47.3	75	39.8	0	0	---	0.00	30.281 
23:55	47.1	47.1	47.1	75	39.6	0	0	---	0.00	30.281 

CoCoRaHS
IN-AL-39
A2 Web Hosting
Creative Commons License
GoDaddy
search engine by freefind advanced

loaded 2018-11-17 13:03:23 • last modified 2010-11-18 10:43:29
Privacy PolicyDisclaimer
• wx.awcolley.com is powered by PmWiki v.2002016 •
• all content (unless otherwise noted) © 2018 A W Colley